Terminal Aerodrome Forecast
Issued by NWS Cleveland, OH

Home | Current Version | Previous Version | Graphics & Text | Print | Product List | Glossary On
Versions: 1 2 3 4 5 6 7 8 9 10 11 12 13 14 15 16 17 18
084
FTUS41 KCLE 102339
TAFMFD
TAF
KMFD 102339Z 1100/1124 21010KT P6SM SCT025 OVC040
     FM110400 27008KT P6SM SCT015 OVC025
     FM111500 19008KT P6SM SCT025 OVC035=

USA.gov is the U.S. government's official web portal to all federal, state and local government web resources and services.